sensor_id;sensor_type;location;lat;lon;timestamp;pressure;altitude;pressure_sealevel;temperature
64470;BMP280;50854;48.538;14.352;2022-09-30T00:00:24;92489.69;;;8.39
64470;BMP280;50854;48.538;14.352;2022-09-30T00:01:26;92495.81;;;8.40
64470;BMP280;50854;48.538;14.352;2022-09-30T00:02:26;92490.94;;;8.38
64470;BMP280;50854;48.538;14.352;2022-09-30T00:03:26;92494.34;;;8.39
64470;BMP280;50854;48.538;14.352;2022-09-30T00:04:27;92494.69;;;8.35
64470;BMP280;50854;48.538;14.352;2022-09-30T00:05:28;92487.53;;;8.38
64470;BMP280;50854;48.538;14.352;2022-09-30T00:06:28;92496.13;;;8.36
64470;BMP280;50854;48.538;14.352;2022-09-30T00:07:29;92496.84;;;8.37
64470;BMP280;50854;48.538;14.352;2022-09-30T00:08:29;92493.44;;;8.36
64470;BMP280;50854;48.538;14.352;2022-09-30T00:09:30;92495.59;;;8.38
64470;BMP280;50854;48.538;14.352;2022-09-30T00:10:30;92498.13;;;8.36
64470;BMP280;50854;48.538;14.352;2022-09-30T00:11:31;92498.66;;;8.34
64470;BMP280;50854;48.538;14.352;2022-09-30T00:12:33;92494.69;;;8.35
64470;BMP280;50854;48.538;14.352;2022-09-30T00:13:34;92500.81;;;8.36
64470;BMP280;50854;48.538;14.352;2022-09-30T00:14:34;92497.22;;;8.33
64470;BMP280;50854;48.538;14.352;2022-09-30T00:15:35;92496.50;;;8.33
64470;BMP280;50854;48.538;14.352;2022-09-30T00:16:35;92496.31;;;8.38
64470;BMP280;50854;48.538;14.352;2022-09-30T00:17:36;92497.56;;;8.37
64470;BMP280;50854;48.538;14.352;2022-09-30T00:18:36;92502.25;;;8.37
64470;BMP280;50854;48.538;14.352;2022-09-30T00:19:37;92498.66;;;8.34
64470;BMP280;50854;48.538;14.352;2022-09-30T00:20:37;92503.84;;;8.32
64470;BMP280;50854;48.538;14.352;2022-09-30T00:21:37;92497.94;;;8.34
64470;BMP280;50854;48.538;14.352;2022-09-30T00:22:38;92497.56;;;8.37
64470;BMP280;50854;48.538;14.352;2022-09-30T00:23:38;92499.72;;;8.31
64470;BMP280;50854;48.538;14.352;2022-09-30T00:24:39;92502.94;;;8.30
64470;BMP280;50854;48.538;14.352;2022-09-30T00:25:39;92500.25;;;8.30
64470;BMP280;50854;48.538;14.352;2022-09-30T00:26:39;92498.66;;;8.34
64470;BMP280;50854;48.538;14.352;2022-09-30T00:27:40;92506.19;;;8.36
64470;BMP280;50854;48.538;14.352;2022-09-30T00:28:40;92508.69;;;8.34
64470;BMP280;50854;48.538;14.352;2022-09-30T00:29:41;92505.09;;;8.31
64470;BMP280;50854;48.538;14.352;2022-09-30T00:30:41;92505.47;;;8.35
64470;BMP280;50854;48.538;14.352;2022-09-30T00:31:42;92504.94;;;8.37
64470;BMP280;50854;48.538;14.352;2022-09-30T00:32:42;92507.47;;;8.35
64470;BMP280;50854;48.538;14.352;2022-09-30T00:33:42;92507.25;;;8.33
64470;BMP280;50854;48.538;14.352;2022-09-30T00:34:43;92507.47;;;8.35
64470;BMP280;50854;48.538;14.352;2022-09-30T00:35:43;92506.00;;;8.34
64470;BMP280;50854;48.538;14.352;2022-09-30T00:36:47;92509.94;;;8.33
64470;BMP280;50854;48.538;14.352;2022-09-30T00:37:48;92506.84;;;8.29
64470;BMP280;50854;48.538;14.352;2022-09-30T00:38:48;92519.28;;;8.32
64470;BMP280;50854;48.538;14.352;2022-09-30T00:39:48;92512.63;;;8.33
64470;BMP280;50854;48.538;14.352;2022-09-30T00:40:49;92523.41;;;8.33
64470;BMP280;50854;48.538;14.352;2022-09-30T00:41:54;92518.03;;;8.33
64470;BMP280;50854;48.538;14.352;2022-09-30T00:42:55;92515.13;;;8.31
64470;BMP280;50854;48.538;14.352;2022-09-30T00:43:56;92518.75;;;8.33
64470;BMP280;50854;48.538;14.352;2022-09-30T00:45:04;92525.56;;;8.34
64470;BMP280;50854;48.538;14.352;2022-09-30T00:46:04;92529.50;;;8.33
64470;BMP280;50854;48.538;14.352;2022-09-30T00:47:10;92535.59;;;8.34
64470;BMP280;50854;48.538;14.352;2022-09-30T00:48:24;92527.00;;;8.35
64470;BMP280;50854;48.538;14.352;2022-09-30T00:49:28;92535.78;;;8.36
64470;BMP280;50854;48.538;14.352;2022-09-30T00:50:32;92532.91;;;8.34
64470;BMP280;50854;48.538;14.352;2022-09-30T00:51:34;92532.91;;;8.34
64470;BMP280;50854;48.538;14.352;2022-09-30T00:52:35;92530.69;;;8.24
64470;BMP280;50854;48.538;14.352;2022-09-30T00:53:38;92527.66;;;8.28
64470;BMP280;50854;48.538;14.352;2022-09-30T00:54:41;92529.84;;;8.30
64470;BMP280;50854;48.538;14.352;2022-09-30T00:56:43;92537.72;;;8.27
64470;BMP280;50854;48.538;14.352;2022-09-30T00:57:44;92535.03;;;8.27
64470;BMP280;50854;48.538;14.352;2022-09-30T00:58:54;92540.63;;;8.30
64470;BMP280;50854;48.538;14.352;2022-09-30T00:59:55;92540.25;;;8.33
64470;BMP280;50854;48.538;14.352;2022-09-30T01:00:56;92545.66;;;8.33
64470;BMP280;50854;48.538;14.352;2022-09-30T01:01:58;92538.09;;;8.32
64470;BMP280;50854;48.538;14.352;2022-09-30T01:03:00;92537.19;;;8.29
64470;BMP280;50854;48.538;14.352;2022-09-30T01:04:02;92541.34;;;8.30
64470;BMP280;50854;48.538;14.352;2022-09-30T01:05:03;92538.63;;;8.30
64470;BMP280;50854;48.538;14.352;2022-09-30T01:06:04;92544.94;;;8.33
64470;BMP280;50854;48.538;14.352;2022-09-30T01:07:05;92538.47;;;8.36
64470;BMP280;50854;48.538;14.352;2022-09-30T01:08:05;92536.84;;;8.33
64470;BMP280;50854;48.538;14.352;2022-09-30T01:09:07;92548.16;;;8.31
64470;BMP280;50854;48.538;14.352;2022-09-30T01:10:07;92546.03;;;8.37
64470;BMP280;50854;48.538;14.352;2022-09-30T01:11:08;92545.31;;;8.37
64470;BMP280;50854;48.538;14.352;2022-09-30T01:12:10;92547.44;;;8.31
64470;BMP280;50854;48.538;14.352;2022-09-30T01:13:11;92548.88;;;8.32
64470;BMP280;50854;48.538;14.352;2022-09-30T01:14:16;92547.44;;;8.31
64470;BMP280;50854;48.538;14.352;2022-09-30T01:15:18;92550.31;;;8.33
64470;BMP280;50854;48.538;14.352;2022-09-30T01:16:31;92544.94;;;8.33
64470;BMP280;50854;48.538;14.352;2022-09-30T01:20:52;92547.84;;;8.35
64470;BMP280;50854;48.538;14.352;2022-09-30T01:30:19;92540.97;;;8.34
64470;BMP280;50854;48.538;14.352;2022-09-30T01:34:37;92556.59;;;8.35
64470;BMP280;50854;48.538;14.352;2022-09-30T01:36:51;92546.56;;;8.36
64470;BMP280;50854;48.538;14.352;2022-09-30T01:42:35;92555.91;;;8.35
64470;BMP280;50854;48.538;14.352;2022-09-30T01:43:48;92545.84;;;8.35
64470;BMP280;50854;48.538;14.352;2022-09-30T01:48:26;92550.53;;;8.35
64470;BMP280;50854;48.538;14.352;2022-09-30T01:51:52;92550.53;;;8.35
64470;BMP280;50854;48.538;14.352;2022-09-30T01:53:00;92544.34;;;8.26
64470;BMP280;50854;48.538;14.352;2022-09-30T01:55:08;92553.59;;;8.18
64470;BMP280;50854;48.538;14.352;2022-09-30T13:46:10;93074.72;;;11.79
64470;BMP280;50854;48.538;14.352;2022-09-30T13:47:36;93076.13;;;11.80
64470;BMP280;50854;48.538;14.352;2022-09-30T13:48:34;93075.41;;;11.72
64470;BMP280;50854;48.538;14.352;2022-09-30T13:50:36;93080.13;;;11.79
64470;BMP280;50854;48.538;14.352;2022-09-30T13:51:10;93076.53;;;11.85
64470;BMP280;50854;48.538;14.352;2022-09-30T13:52:32;93071.28;;;11.87
64470;BMP280;50854;48.538;14.352;2022-09-30T13:53:34;93074.50;;;11.77
64470;BMP280;50854;48.538;14.352;2022-09-30T13:54:38;93073.06;;;11.61
64470;BMP280;50854;48.538;14.352;2022-09-30T13:55:46;93066.59;;;11.64
64470;BMP280;50854;48.538;14.352;2022-09-30T13:56:49;93073.22;;;11.56
64470;BMP280;50854;48.538;14.352;2022-09-30T13:59:10;93068.94;;;11.68
64470;BMP280;50854;48.538;14.352;2022-09-30T14:00:15;93072.91;;;11.74
64470;BMP280;50854;48.538;14.352;2022-09-30T14:04:49;93077.25;;;12.00
64470;BMP280;50854;48.538;14.352;2022-09-30T14:09:53;93082.25;;;12.19
64470;BMP280;50854;48.538;14.352;2022-09-30T14:13:18;93094.94;;;11.78
64470;BMP280;50854;48.538;14.352;2022-09-30T14:15:42;93090.25;;;11.79
64470;BMP280;50854;48.538;14.352;2022-09-30T14:18:01;93078.69;;;11.94
64470;BMP280;50854;48.538;14.352;2022-09-30T14:21:03;93079.19;;;11.54
64470;BMP280;50854;48.538;14.352;2022-09-30T14:21:53;93072.16;;;11.81
64470;BMP280;50854;48.538;14.352;2022-09-30T14:22:54;93074.34;;;11.91
64470;BMP280;50854;48.538;14.352;2022-09-30T14:23:55;93072.00;;;11.87
64470;BMP280;50854;48.538;14.352;2022-09-30T14:24:56;93069.09;;;11.93
64470;BMP280;50854;48.538;14.352;2022-09-30T14:26:06;93068.19;;;11.98
64470;BMP280;50854;48.538;14.352;2022-09-30T14:28:50;93063.69;;;12.16
64470;BMP280;50854;48.538;14.352;2022-09-30T14:31:00;93066.38;;;12.31
64470;BMP280;50854;48.538;14.352;2022-09-30T14:32:12;93074.69;;;12.25
64470;BMP280;50854;48.538;14.352;2022-09-30T14:33:18;93059.50;;;12.30
64470;BMP280;50854;48.538;14.352;2022-09-30T14:34:21;93058.06;;;12.36
64470;BMP280;50854;48.538;14.352;2022-09-30T14:35:24;93061.66;;;12.39
64470;BMP280;50854;48.538;14.352;2022-09-30T14:36:27;93057.31;;;12.43
64470;BMP280;50854;48.538;14.352;2022-09-30T14:37:28;93065.06;;;12.47
64470;BMP280;50854;48.538;14.352;2022-09-30T14:38:29;93059.84;;;12.49
64470;BMP280;50854;48.538;14.352;2022-09-30T14:39:31;93059.47;;;12.53
64470;BMP280;50854;48.538;14.352;2022-09-30T14:40:33;93072.81;;;12.58
64470;BMP280;50854;48.538;14.352;2022-09-30T14:41:33;93068.47;;;12.63
64470;BMP280;50854;48.538;14.352;2022-09-30T14:42:34;93072.06;;;12.65
64470;BMP280;50854;48.538;14.352;2022-09-30T14:43:39;93070.06;;;12.66
64470;BMP280;50854;48.538;14.352;2022-09-30T14:44:41;93080.72;;;12.71
64470;BMP280;50854;48.538;14.352;2022-09-30T14:45:42;93071.66;;;12.77
64470;BMP280;50854;48.538;14.352;2022-09-30T14:46:43;93079.28;;;12.78
64470;BMP280;50854;48.538;14.352;2022-09-30T14:47:47;93075.84;;;12.78
64470;BMP280;50854;48.538;14.352;2022-09-30T14:48:49;93072.00;;;12.81
64470;BMP280;50854;48.538;14.352;2022-09-30T14:49:50;93071.28;;;12.80
64470;BMP280;50854;48.538;14.352;2022-09-30T14:50:57;93076.72;;;12.80
64470;BMP280;50854;48.538;14.352;2022-09-30T14:51:59;93081.78;;;12.76
64470;BMP280;50854;48.538;14.352;2022-09-30T14:53:02;93073.84;;;12.78
64470;BMP280;50854;48.538;14.352;2022-09-30T14:54:02;93080.88;;;12.81
64470;BMP280;50854;48.538;14.352;2022-09-30T14:55:15;93070.75;;;12.82
64470;BMP280;50854;48.538;14.352;2022-09-30T14:56:21;93080.16;;;12.81
64470;BMP280;50854;48.538;14.352;2022-09-30T14:57:22;93080.34;;;12.75
64470;BMP280;50854;48.538;14.352;2022-09-30T14:59:31;93072.75;;;12.73
64470;BMP280;50854;48.538;14.352;2022-09-30T15:00:32;93071.91;;;12.63
64470;BMP280;50854;48.538;14.352;2022-09-30T15:01:33;93066.63;;;12.65
64470;BMP280;50854;48.538;14.352;2022-09-30T15:02:34;93071.19;;;12.63
64470;BMP280;50854;48.538;14.352;2022-09-30T15:03:36;93070.81;;;12.59
64470;BMP280;50854;48.538;14.352;2022-09-30T15:04:39;93074.09;;;12.57
64470;BMP280;50854;48.538;14.352;2022-09-30T15:05:39;93064.31;;;12.62
64470;BMP280;50854;48.538;14.352;2022-09-30T15:06:47;93071.34;;;12.65
64470;BMP280;50854;48.538;14.352;2022-09-30T15:07:48;93070.97;;;12.68
64470;BMP280;50854;48.538;14.352;2022-09-30T15:08:48;93076.19;;;12.66
64470;BMP280;50854;48.538;14.352;2022-09-30T15:09:49;93077.88;;;12.62
64470;BMP280;50854;48.538;14.352;2022-09-30T15:10:52;93079.50;;;12.65
64470;BMP280;50854;48.538;14.352;2022-09-30T15:11:53;93075.19;;;12.47
64470;BMP280;50854;48.538;14.352;2022-09-30T15:12:54;93081.00;;;12.43
64470;BMP280;50854;48.538;14.352;2022-09-30T15:13:58;93082.06;;;12.40
64470;BMP280;50854;48.538;14.352;2022-09-30T15:14:59;93084.97;;;12.34
64470;BMP280;50854;48.538;14.352;2022-09-30T15:15:59;93085.69;;;12.20
64470;BMP280;50854;48.538;14.352;2022-09-30T15:17:00;93087.69;;;12.04
64470;BMP280;50854;48.538;14.352;2022-09-30T15:18:20;93085.53;;;11.72
64470;BMP280;50854;48.538;14.352;2022-09-30T15:19:25;93083.69;;;11.67
64470;BMP280;50854;48.538;14.352;2022-09-30T15:20:30;93085.16;;;11.68
64470;BMP280;50854;48.538;14.352;2022-09-30T15:21:31;93088.94;;;11.80
64470;BMP280;50854;48.538;14.352;2022-09-30T15:22:31;93090.22;;;11.87
64470;BMP280;50854;48.538;14.352;2022-09-30T15:23:32;93089.88;;;11.90
64470;BMP280;50854;48.538;14.352;2022-09-30T15:24:33;93099.97;;;11.90
64470;BMP280;50854;48.538;14.352;2022-09-30T15:25:35;93102.50;;;11.95
64470;BMP280;50854;48.538;14.352;2022-09-30T15:26:35;93106.09;;;11.98
64470;BMP280;50854;48.538;14.352;2022-09-30T15:27:36;93095.63;;;12.02
64470;BMP280;50854;48.538;14.352;2022-09-30T15:28:36;93098.91;;;12.00
64470;BMP280;50854;48.538;14.352;2022-09-30T15:29:52;93101.75;;;12.02
64470;BMP280;50854;48.538;14.352;2022-09-30T15:30:53;93116.22;;;12.05
64470;BMP280;50854;48.538;14.352;2022-09-30T15:32:07;93109.34;;;12.04
64470;BMP280;50854;48.538;14.352;2022-09-30T15:33:13;93103.41;;;11.98
64470;BMP280;50854;48.538;14.352;2022-09-30T15:34:19;93110.06;;;11.97
64470;BMP280;50854;48.538;14.352;2022-09-30T15:35:21;93106.81;;;11.98
64470;BMP280;50854;48.538;14.352;2022-09-30T15:36:22;93107.75;;;12.01
64470;BMP280;50854;48.538;14.352;2022-09-30T15:37:23;93102.88;;;11.99
64470;BMP280;50854;48.538;14.352;2022-09-30T15:38:24;93122.03;;;11.94
64470;BMP280;50854;48.538;14.352;2022-09-30T15:39:26;93113.69;;;11.92
64470;BMP280;50854;48.538;14.352;2022-09-30T15:40:54;93114.78;;;11.89
64470;BMP280;50854;48.538;14.352;2022-09-30T15:41:58;93114.59;;;11.87
64470;BMP280;50854;48.538;14.352;2022-09-30T15:42:59;93112.22;;;11.83
64470;BMP280;50854;48.538;14.352;2022-09-30T15:44:01;93111.50;;;11.82
64470;BMP280;50854;48.538;14.352;2022-09-30T15:45:03;93112.03;;;11.81
64470;BMP280;50854;48.538;14.352;2022-09-30T15:47:11;93111.50;;;11.75
64470;BMP280;50854;48.538;14.352;2022-09-30T15:49:31;93108.78;;;11.67
64470;BMP280;50854;48.538;14.352;2022-09-30T15:50:38;93110.41;;;11.63
64470;BMP280;50854;48.538;14.352;2022-09-30T15:51:39;93117.97;;;11.57
64470;BMP280;50854;48.538;14.352;2022-09-30T15:52:40;93109.13;;;11.48
64470;BMP280;50854;48.538;14.352;2022-09-30T15:54:40;93119.91;;;11.41
64470;BMP280;50854;48.538;14.352;2022-09-30T15:55:41;93121.16;;;11.40
64470;BMP280;50854;48.538;14.352;2022-09-30T15:56:42;93113.94;;;11.35
64470;BMP280;50854;48.538;14.352;2022-09-30T15:57:44;93114.81;;;11.30
64470;BMP280;50854;48.538;14.352;2022-09-30T15:58:58;93119.34;;;11.27
64470;BMP280;50854;48.538;14.352;2022-09-30T15:59:59;93118.59;;;11.19
64470;BMP280;50854;48.538;14.352;2022-09-30T16:02:20;93119.22;;;11.04
64470;BMP280;50854;48.538;14.352;2022-09-30T16:03:24;93117.63;;;11.01
64470;BMP280;50854;48.538;14.352;2022-09-30T16:04:25;93124.28;;;11.00
64470;BMP280;50854;48.538;14.352;2022-09-30T16:05:25;93123.53;;;11.00
64470;BMP280;50854;48.538;14.352;2022-09-30T16:06:30;93123.50;;;10.92
64470;BMP280;50854;48.538;14.352;2022-09-30T16:07:33;93127.09;;;10.87
64470;BMP280;50854;48.538;14.352;2022-09-30T16:09:40;93130.66;;;10.82
64470;BMP280;50854;48.538;14.352;2022-09-30T16:10:40;93129.03;;;10.79
64470;BMP280;50854;48.538;14.352;2022-09-30T16:12:06;93123.06;;;10.80
64470;BMP280;50854;48.538;14.352;2022-09-30T16:13:07;93120.72;;;10.77
64470;BMP280;50854;48.538;14.352;2022-09-30T16:14:17;93114.03;;;10.70
64470;BMP280;50854;48.538;14.352;2022-09-30T16:15:18;93107.31;;;10.64
64470;BMP280;50854;48.538;14.352;2022-09-30T16:16:19;93111.09;;;10.60
64470;BMP280;50854;48.538;14.352;2022-09-30T16:17:22;93113.22;;;10.54
64470;BMP280;50854;48.538;14.352;2022-09-30T16:18:24;93117.91;;;10.54
64470;BMP280;50854;48.538;14.352;2022-09-30T16:19:26;93116.56;;;10.47
64470;BMP280;50854;48.538;14.352;2022-09-30T16:20:27;93112.44;;;10.46
64470;BMP280;50854;48.538;14.352;2022-09-30T16:23:43;93113.81;;;10.40
64470;BMP280;50854;48.538;14.352;2022-09-30T16:24:44;93112.72;;;10.35
64470;BMP280;50854;48.538;14.352;2022-09-30T16:25:45;93108.72;;;10.28
64470;BMP280;50854;48.538;14.352;2022-09-30T16:26:45;93106.03;;;10.28
64470;BMP280;50854;48.538;14.352;2022-09-30T16:27:46;93114.25;;;10.23
64470;BMP280;50854;48.538;14.352;2022-09-30T16:28:46;93104.81;;;10.16
64470;BMP280;50854;48.538;14.352;2022-09-30T16:29:47;93115.56;;;10.09
64470;BMP280;50854;48.538;14.352;2022-09-30T16:30:48;93111.34;;;10.00
64470;BMP280;50854;48.538;14.352;2022-09-30T16:31:49;93110.09;;;10.01
64470;BMP280;50854;48.538;14.352;2022-09-30T16:32:50;93115.44;;;9.93
64470;BMP280;50854;48.538;14.352;2022-09-30T16:33:52;93119.59;;;9.94
64470;BMP280;50854;48.538;14.352;2022-09-30T16:34:52;93125.19;;;9.96
64470;BMP280;50854;48.538;14.352;2022-09-30T16:35:52;93124.47;;;9.96
64470;BMP280;50854;48.538;14.352;2022-09-30T16:37:04;93122.50;;;9.96
64470;BMP280;50854;48.538;14.352;2022-09-30T16:38:05;93119.06;;;9.96
64470;BMP280;50854;48.538;14.352;2022-09-30T16:39:07;93127.09;;;9.88
64470;BMP280;50854;48.538;14.352;2022-09-30T16:40:14;93122.75;;;9.85
64470;BMP280;50854;48.538;14.352;2022-09-30T16:41:15;93129.63;;;9.86
64470;BMP280;50854;48.538;14.352;2022-09-30T16:42:16;93128.66;;;9.84
64470;BMP280;50854;48.538;14.352;2022-09-30T16:43:16;93123.41;;;9.78
64470;BMP280;50854;48.538;14.352;2022-09-30T16:44:17;93131.41;;;9.70
64470;BMP280;50854;48.538;14.352;2022-09-30T16:45:17;93135.47;;;9.64
64470;BMP280;50854;48.538;14.352;2022-09-30T16:46:17;93132.59;;;9.62
64470;BMP280;50854;48.538;14.352;2022-09-30T16:47:18;93128.09;;;9.64
64470;BMP280;50854;48.538;14.352;2022-09-30T16:48:20;93129.34;;;9.63
64470;BMP280;50854;48.538;14.352;2022-09-30T16:49:20;93137.97;;;9.62
64470;BMP280;50854;48.538;14.352;2022-09-30T16:50:40;93139.22;;;9.61
64470;BMP280;50854;48.538;14.352;2022-09-30T16:51:42;93135.22;;;9.54
64470;BMP280;50854;48.538;14.352;2022-09-30T16:52:42;93141.53;;;9.57
64470;BMP280;50854;48.538;14.352;2022-09-30T16:53:42;93144.03;;;9.55
64470;BMP280;50854;48.538;14.352;2022-09-30T16:54:43;93144.75;;;9.55
64470;BMP280;50854;48.538;14.352;2022-09-30T16:55:43;93145.25;;;9.54
64470;BMP280;50854;48.538;14.352;2022-09-30T16:56:43;93145.25;;;9.54
64470;BMP280;50854;48.538;14.352;2022-09-30T16:57:44;93139.66;;;9.52
64470;BMP280;50854;48.538;14.352;2022-09-30T16:58:44;93146.09;;;9.49
64470;BMP280;50854;48.538;14.352;2022-09-30T16:59:45;93143.00;;;9.45
64470;BMP280;50854;48.538;14.352;2022-09-30T17:00:45;93140.66;;;9.41
64470;BMP280;50854;48.538;14.352;2022-09-30T17:01:45;93141.19;;;9.39
64470;BMP280;50854;48.538;14.352;2022-09-30T17:02:46;93145.75;;;9.31
64470;BMP280;50854;48.538;14.352;2022-09-30T17:03:47;93149.91;;;9.19
64470;BMP280;50854;48.538;14.352;2022-09-30T17:04:48;93146.91;;;8.96
64470;BMP280;50854;48.538;14.352;2022-09-30T17:05:48;93139.38;;;8.95
64470;BMP280;50854;48.538;14.352;2022-09-30T17:06:57;93150.13;;;8.95
64470;BMP280;50854;48.538;14.352;2022-09-30T17:07:58;93144.75;;;8.95
64470;BMP280;50854;48.538;14.352;2022-09-30T17:08:58;93148.47;;;8.92
64470;BMP280;50854;48.538;14.352;2022-09-30T17:10:00;93145.56;;;8.90
64470;BMP280;50854;48.538;14.352;2022-09-30T17:11:01;93149.72;;;8.91
64470;BMP280;50854;48.538;14.352;2022-09-30T17:12:01;93153.66;;;8.90
64470;BMP280;50854;48.538;14.352;2022-09-30T17:13:01;93151.47;;;8.88
64470;BMP280;50854;48.538;14.352;2022-09-30T17:14:03;93153.44;;;8.88
64470;BMP280;50854;48.538;14.352;2022-09-30T17:15:03;93164.94;;;8.88
64470;BMP280;50854;48.538;14.352;2022-09-30T17:16:04;93156.16;;;8.88
64470;BMP280;50854;48.538;14.352;2022-09-30T17:17:04;93166.19;;;8.87
64470;BMP280;50854;48.538;14.352;2022-09-30T17:18:05;93165.25;;;8.71
64470;BMP280;50854;48.538;14.352;2022-09-30T17:19:06;93160.88;;;8.42
64470;BMP280;50854;48.538;14.352;2022-09-30T17:20:07;93166.34;;;8.49
64470;BMP280;50854;48.538;14.352;2022-09-30T17:21:07;93164.59;;;8.52
64470;BMP280;50854;48.538;14.352;2022-09-30T17:22:08;93166.56;;;8.51
64470;BMP280;50854;48.538;14.352;2022-09-30T17:23:08;93167.31;;;8.52
64470;BMP280;50854;48.538;14.352;2022-09-30T17:24:09;93163.38;;;8.53
64470;BMP280;50854;48.538;14.352;2022-09-30T17:25:09;93164.81;;;8.54
64470;BMP280;50854;48.538;14.352;2022-09-30T17:26:10;93170.41;;;8.56
64470;BMP280;50854;48.538;14.352;2022-09-30T17:27:10;93164.59;;;8.52
64470;BMP280;50854;48.538;14.352;2022-09-30T17:28:10;93170.72;;;8.52
64470;BMP280;50854;48.538;14.352;2022-09-30T17:29:11;93171.00;;;8.49
64470;BMP280;50854;48.538;14.352;2022-09-30T17:30:12;93173.31;;;8.58
64470;BMP280;50854;48.538;14.352;2022-09-30T17:31:12;93174.75;;;8.59
64470;BMP280;50854;48.538;14.352;2022-09-30T17:32:12;93174.75;;;8.59
64470;BMP280;50854;48.538;14.352;2022-09-30T17:33:12;93182.63;;;8.57
64470;BMP280;50854;48.538;14.352;2022-09-30T17:34:13;93170.06;;;8.46
64470;BMP280;50854;48.538;14.352;2022-09-30T17:35:13;93170.72;;;8.52
64470;BMP280;50854;48.538;14.352;2022-09-30T17:36:13;93180.75;;;8.52
64470;BMP280;50854;48.538;14.352;2022-09-30T17:37:14;93179.31;;;8.51
64470;BMP280;50854;48.538;14.352;2022-09-30T17:38:14;93190.09;;;8.51
64470;BMP280;50854;48.538;14.352;2022-09-30T17:39:14;93178.59;;;8.50
64470;BMP280;50854;48.538;14.352;2022-09-30T17:40:15;93190.09;;;8.51
64470;BMP280;50854;48.538;14.352;2022-09-30T17:41:34;93185.31;;;8.44
64470;BMP280;50854;48.538;14.352;2022-09-30T17:42:53;93180.72;;;8.39
64470;BMP280;50854;48.538;14.352;2022-09-30T17:44:12;93176.97;;;8.29
64470;BMP280;50854;48.538;14.352;2022-09-30T17:45:12;93178.66;;;8.32
64470;BMP280;50854;48.538;14.352;2022-09-30T17:46:13;93177.09;;;8.36
64470;BMP280;50854;48.538;14.352;2022-09-30T17:47:17;93178.03;;;8.39
64470;BMP280;50854;48.538;14.352;2022-09-30T17:48:18;93176.06;;;8.39
64470;BMP280;50854;48.538;14.352;2022-09-30T17:49:18;93176.56;;;8.38
64470;BMP280;50854;48.538;14.352;2022-09-30T17:50:19;93175.31;;;8.39
64470;BMP280;50854;48.538;14.352;2022-09-30T17:51:21;93179.25;;;8.38
64470;BMP280;50854;48.538;14.352;2022-09-30T17:52:21;93174.13;;;8.40
64470;BMP280;50854;48.538;14.352;2022-09-30T17:53:24;93182.19;;;8.40
64470;BMP280;50854;48.538;14.352;2022-09-30T17:54:24;93183.66;;;8.41
64470;BMP280;50854;48.538;14.352;2022-09-30T17:55:25;93178.47;;;8.43
64470;BMP280;50854;48.538;14.352;2022-09-30T17:56:26;93184.25;;;8.47
64470;BMP280;50854;48.538;14.352;2022-09-30T17:57:27;93177.22;;;8.44
64470;BMP280;50854;48.538;14.352;2022-09-30T17:58:28;93183.84;;;8.43
64470;BMP280;50854;48.538;14.352;2022-09-30T17:59:28;93183.84;;;8.43
64470;BMP280;50854;48.538;14.352;2022-09-30T18:00:29;93187.28;;;8.43
64470;BMP280;50854;48.538;14.352;2022-09-30T18:01:30;93180.94;;;8.41
64470;BMP280;50854;48.538;14.352;2022-09-30T18:02:30;93186.53;;;8.43
64470;BMP280;50854;48.538;14.352;2022-09-30T18:03:30;93185.81;;;8.42
64470;BMP280;50854;48.538;14.352;2022-09-30T18:04:31;93182.41;;;8.42
64470;BMP280;50854;48.538;14.352;2022-09-30T18:05:34;93181.69;;;8.41
64470;BMP280;50854;48.538;14.352;2022-09-30T18:06:34;93178.25;;;8.41
64470;BMP280;50854;48.538;14.352;2022-09-30T18:07:35;93177.94;;;8.44
64470;BMP280;50854;48.538;14.352;2022-09-30T18:08:35;93179.72;;;8.42
64470;BMP280;50854;48.538;14.352;2022-09-30T18:09:36;93187.63;;;8.21
64470;BMP280;50854;48.538;14.352;2022-09-30T18:10:37;93181.59;;;8.15
64470;BMP280;50854;48.538;14.352;2022-09-30T18:11:37;93182.44;;;8.23
64470;BMP280;50854;48.538;14.352;2022-09-30T18:12:37;93184.31;;;8.28
64470;BMP280;50854;48.538;14.352;2022-09-30T18:13:38;93182.34;;;8.29
64470;BMP280;50854;48.538;14.352;2022-09-30T18:14:39;93177.41;;;8.33
64470;BMP280;50854;48.538;14.352;2022-09-30T18:15:39;93180.00;;;8.38
64470;BMP280;50854;48.538;14.352;2022-09-30T18:16:39;93180.94;;;8.41
64470;BMP280;50854;48.538;14.352;2022-09-30T18:17:40;93177.94;;;8.44
64470;BMP280;50854;48.538;14.352;2022-09-30T18:18:40;93182.81;;;8.46
64470;BMP280;50854;48.538;14.352;2022-09-30T18:19:40;93182.09;;;8.45
64470;BMP280;50854;48.538;14.352;2022-09-30T18:20:47;93188.72;;;8.44
64470;BMP280;50854;48.538;14.352;2022-09-30T18:21:48;93182.19;;;8.40
64470;BMP280;50854;48.538;14.352;2022-09-30T18:22:48;93189.50;;;8.39
64470;BMP280;50854;48.538;14.352;2022-09-30T18:23:49;93187.34;;;8.38
64470;BMP280;50854;48.538;14.352;2022-09-30T18:24:50;93186.34;;;8.41
64470;BMP280;50854;48.538;14.352;2022-09-30T18:26:08;93187.47;;;8.45
64470;BMP280;50854;48.538;14.352;2022-09-30T18:27:09;93189.84;;;8.49
64470;BMP280;50854;48.538;14.352;2022-09-30T18:28:10;93184.97;;;8.47
64470;BMP280;50854;48.538;14.352;2022-09-30T18:29:10;93192.78;;;8.51
64470;BMP280;50854;48.538;14.352;2022-09-30T18:30:10;93186.53;;;8.43
64470;BMP280;50854;48.538;14.352;2022-09-30T18:31:11;93184.75;;;8.32
64470;BMP280;50854;48.538;14.352;2022-09-30T18:32:17;93182.56;;;8.31
64470;BMP280;50854;48.538;14.352;2022-09-30T18:33:17;93177.78;;;8.23
64470;BMP280;50854;48.538;14.352;2022-09-30T18:34:20;93182.53;;;8.17
64470;BMP280;50854;48.538;14.352;2022-09-30T18:35:22;93176.34;;;8.22
64470;BMP280;50854;48.538;14.352;2022-09-30T18:36:23;93176.75;;;8.26
64470;BMP280;50854;48.538;14.352;2022-09-30T18:37:27;93183.81;;;8.30
64470;BMP280;50854;48.538;14.352;2022-09-30T18:38:27;93185.47;;;8.33
64470;BMP280;50854;48.538;14.352;2022-09-30T18:39:27;93182.28;;;8.34
64470;BMP280;50854;48.538;14.352;2022-09-30T18:40:28;93184.66;;;8.38
64470;BMP280;50854;48.538;14.352;2022-09-30T18:41:28;93188.78;;;8.39
64470;BMP280;50854;48.538;14.352;2022-09-30T18:42:30;93181.44;;;8.39
64470;BMP280;50854;48.538;14.352;2022-09-30T18:43:30;93177.00;;;8.42
64470;BMP280;50854;48.538;14.352;2022-09-30T18:44:31;93177.53;;;8.40